sensor_id;sensor_type;location;lat;lon;timestamp;P1;durP1;ratioP1;P2;durP2;ratioP2
53062;SDS011;40529;52.172;10.548;2023-02-26T00:00:37;4.82;;;1.67;;
53062;SDS011;40529;52.172;10.548;2023-02-26T00:03:03;6.00;;;1.42;;
53062;SDS011;40529;52.172;10.548;2023-02-26T00:05:29;2.92;;;1.42;;
53062;SDS011;40529;52.172;10.548;2023-02-26T00:07:55;5.00;;;1.55;;
53062;SDS011;40529;52.172;10.548;2023-02-26T00:10:21;6.32;;;1.42;;
53062;SDS011;40529;52.172;10.548;2023-02-26T00:12:47;6.65;;;1.60;;
53062;SDS011;40529;52.172;10.548;2023-02-26T00:15:13;2.85;;;1.40;;
53062;SDS011;40529;52.172;10.548;2023-02-26T00:20:08;4.97;;;1.88;;
53062;SDS011;40529;52.172;10.548;2023-02-26T00:22:35;7.22;;;1.98;;
53062;SDS011;40529;52.172;10.548;2023-02-26T00:25:01;4.95;;;1.30;;
53062;SDS011;40529;52.172;10.548;2023-02-26T00:27:28;4.45;;;1.30;;
53062;SDS011;40529;52.172;10.548;2023-02-26T00:29:54;7.30;;;1.40;;
53062;SDS011;40529;52.172;10.548;2023-02-26T00:32:20;3.17;;;1.38;;
53062;SDS011;40529;52.172;10.548;2023-02-26T00:34:46;7.43;;;1.67;;
53062;SDS011;40529;52.172;10.548;2023-02-26T00:42:37;1.40;;;1.20;;
53062;SDS011;40529;52.172;10.548;2023-02-26T00:45:04;3.83;;;1.65;;
53062;SDS011;40529;52.172;10.548;2023-02-26T00:50:17;5.40;;;1.75;;
53062;SDS011;40529;52.172;10.548;2023-02-26T00:53:03;6.72;;;1.73;;
53062;SDS011;40529;52.172;10.548;2023-02-26T00:57:59;3.38;;;1.42;;
53062;SDS011;40529;52.172;10.548;2023-02-26T01:00:25;4.05;;;1.50;;
53062;SDS011;40529;52.172;10.548;2023-02-26T01:02:51;7.28;;;1.60;;
53062;SDS011;40529;52.172;10.548;2023-02-26T01:05:17;4.38;;;1.80;;
53062;SDS011;40529;52.172;10.548;2023-02-26T01:07:55;2.30;;;1.38;;
53062;SDS011;40529;52.172;10.548;2023-02-26T01:10:25;2.65;;;1.30;;
53062;SDS011;40529;52.172;10.548;2023-02-26T01:12:51;4.72;;;1.75;;
53062;SDS011;40529;52.172;10.548;2023-02-26T01:15:17;3.50;;;1.70;;
53062;SDS011;40529;52.172;10.548;2023-02-26T01:20:51;4.82;;;2.30;;
53062;SDS011;40529;52.172;10.548;2023-02-26T01:23:16;3.47;;;1.63;;
53062;SDS011;40529;52.172;10.548;2023-02-26T01:25:45;2.97;;;1.45;;
53062;SDS011;40529;52.172;10.548;2023-02-26T01:28:13;3.67;;;1.48;;
53062;SDS011;40529;52.172;10.548;2023-02-26T01:30:39;3.50;;;1.42;;
53062;SDS011;40529;52.172;10.548;2023-02-26T01:33:24;5.05;;;1.67;;
53062;SDS011;40529;52.172;10.548;2023-02-26T01:35:53;3.53;;;1.60;;
53062;SDS011;40529;52.172;10.548;2023-02-26T01:46:13;3.97;;;1.50;;
53062;SDS011;40529;52.172;10.548;2023-02-26T01:49:01;3.72;;;1.50;;
53062;SDS011;40529;52.172;10.548;2023-02-26T01:54:07;3.58;;;1.60;;
53062;SDS011;40529;52.172;10.548;2023-02-26T01:56:33;4.63;;;1.60;;
53062;SDS011;40529;52.172;10.548;2023-02-26T01:58:59;3.28;;;1.40;;
53062;SDS011;40529;52.172;10.548;2023-02-26T02:01:29;4.72;;;1.90;;
53062;SDS011;40529;52.172;10.548;2023-02-26T02:03:55;6.03;;;1.60;;
53062;SDS011;40529;52.172;10.548;2023-02-26T02:06:23;6.22;;;1.63;;
53062;SDS011;40529;52.172;10.548;2023-02-26T02:08:49;4.38;;;1.75;;
53062;SDS011;40529;52.172;10.548;2023-02-26T02:11:16;4.40;;;1.60;;
53062;SDS011;40529;52.172;10.548;2023-02-26T02:16:43;4.40;;;1.60;;
53062;SDS011;40529;52.172;10.548;2023-02-26T02:24:18;3.08;;;1.50;;
53062;SDS011;40529;52.172;10.548;2023-02-26T02:29:27;4.18;;;1.48;;
53062;SDS011;40529;52.172;10.548;2023-02-26T02:37:06;4.72;;;1.83;;
53062;SDS011;40529;52.172;10.548;2023-02-26T02:44:55;1.88;;;1.45;;
53062;SDS011;40529;52.172;10.548;2023-02-26T02:47:22;5.70;;;1.60;;
53062;SDS011;40529;52.172;10.548;2023-02-26T02:49:56;4.70;;;1.60;;
53062;SDS011;40529;52.172;10.548;2023-02-26T02:54:50;3.03;;;1.50;;
53062;SDS011;40529;52.172;10.548;2023-02-26T02:57:20;6.67;;;1.80;;
53062;SDS011;40529;52.172;10.548;2023-02-26T02:59:51;4.80;;;1.75;;
53062;SDS011;40529;52.172;10.548;2023-02-26T03:05:03;4.78;;;1.55;;
53062;SDS011;40529;52.172;10.548;2023-02-26T03:07:30;6.78;;;1.60;;
53062;SDS011;40529;52.172;10.548;2023-02-26T03:09:57;2.45;;;1.45;;
53062;SDS011;40529;52.172;10.548;2023-02-26T03:12:24;3.30;;;1.50;;
53062;SDS011;40529;52.172;10.548;2023-02-26T03:14:51;4.15;;;1.50;;
53062;SDS011;40529;52.172;10.548;2023-02-26T03:22:50;5.57;;;1.73;;
53062;SDS011;40529;52.172;10.548;2023-02-26T03:25:21;3.17;;;1.15;;
53062;SDS011;40529;52.172;10.548;2023-02-26T03:35:33;5.25;;;1.40;;
53062;SDS011;40529;52.172;10.548;2023-02-26T03:38:01;2.38;;;1.50;;
53062;SDS011;40529;52.172;10.548;2023-02-26T03:40:34;5.47;;;1.50;;
53062;SDS011;40529;52.172;10.548;2023-02-26T03:43:12;4.32;;;1.77;;
53062;SDS011;40529;52.172;10.548;2023-02-26T03:45:41;2.95;;;1.45;;
53062;SDS011;40529;52.172;10.548;2023-02-26T03:48:08;2.85;;;1.25;;
53062;SDS011;40529;52.172;10.548;2023-02-26T03:50:40;3.42;;;1.33;;
53062;SDS011;40529;52.172;10.548;2023-02-26T03:53:08;4.55;;;1.52;;
53062;SDS011;40529;52.172;10.548;2023-02-26T03:55:37;4.00;;;1.40;;
53062;SDS011;40529;52.172;10.548;2023-02-26T03:58:04;6.32;;;1.70;;
53062;SDS011;40529;52.172;10.548;2023-02-26T04:00:30;5.03;;;1.40;;
53062;SDS011;40529;52.172;10.548;2023-02-26T04:03:07;5.45;;;1.30;;
53062;SDS011;40529;52.172;10.548;2023-02-26T04:05:35;2.90;;;1.45;;
53062;SDS011;40529;52.172;10.548;2023-02-26T04:08:03;5.10;;;1.40;;
53062;SDS011;40529;52.172;10.548;2023-02-26T04:10:32;5.43;;;1.23;;
53062;SDS011;40529;52.172;10.548;2023-02-26T04:12:59;4.03;;;1.20;;
53062;SDS011;40529;52.172;10.548;2023-02-26T04:15:25;3.17;;;1.30;;
53062;SDS011;40529;52.172;10.548;2023-02-26T04:17:51;1.73;;;1.15;;
53062;SDS011;40529;52.172;10.548;2023-02-26T04:20:17;5.45;;;1.58;;
53062;SDS011;40529;52.172;10.548;2023-02-26T04:22:43;7.82;;;1.63;;
53062;SDS011;40529;52.172;10.548;2023-02-26T04:25:09;6.18;;;1.30;;
53062;SDS011;40529;52.172;10.548;2023-02-26T04:27:36;3.85;;;1.13;;
53062;SDS011;40529;52.172;10.548;2023-02-26T04:30:02;2.58;;;1.45;;
53062;SDS011;40529;52.172;10.548;2023-02-26T04:32:28;4.55;;;1.10;;
53062;SDS011;40529;52.172;10.548;2023-02-26T04:34:54;1.20;;;1.00;;
53062;SDS011;40529;52.172;10.548;2023-02-26T04:37:20;6.05;;;1.40;;
53062;SDS011;40529;52.172;10.548;2023-02-26T04:39:46;5.60;;;1.60;;
53062;SDS011;40529;52.172;10.548;2023-02-26T04:42:12;1.95;;;1.20;;
53062;SDS011;40529;52.172;10.548;2023-02-26T04:44:38;2.17;;;1.00;;
53062;SDS011;40529;52.172;10.548;2023-02-26T04:47:04;2.35;;;1.33;;
53062;SDS011;40529;52.172;10.548;2023-02-26T04:49:30;3.35;;;1.33;;
53062;SDS011;40529;52.172;10.548;2023-02-26T04:51:56;3.03;;;1.33;;
53062;SDS011;40529;52.172;10.548;2023-02-26T04:54:23;4.70;;;1.40;;
53062;SDS011;40529;52.172;10.548;2023-02-26T04:56:49;6.10;;;1.40;;
53062;SDS011;40529;52.172;10.548;2023-02-26T04:59:15;4.20;;;1.30;;
53062;SDS011;40529;52.172;10.548;2023-02-26T05:01:41;6.43;;;1.67;;
53062;SDS011;40529;52.172;10.548;2023-02-26T05:04:07;4.15;;;1.42;;
53062;SDS011;40529;52.172;10.548;2023-02-26T05:06:33;4.57;;;1.20;;
53062;SDS011;40529;52.172;10.548;2023-02-26T05:08:59;4.72;;;1.60;;
53062;SDS011;40529;52.172;10.548;2023-02-26T05:11:25;4.13;;;1.45;;
53062;SDS011;40529;52.172;10.548;2023-02-26T05:13:51;3.55;;;1.33;;
53062;SDS011;40529;52.172;10.548;2023-02-26T05:16:17;1.83;;;1.17;;
53062;SDS011;40529;52.172;10.548;2023-02-26T05:18:43;2.38;;;1.27;;
53062;SDS011;40529;52.172;10.548;2023-02-26T05:21:09;1.42;;;1.30;;
53062;SDS011;40529;52.172;10.548;2023-02-26T05:23:35;4.85;;;1.60;;
53062;SDS011;40529;52.172;10.548;2023-02-26T05:26:01;4.53;;;1.30;;
53062;SDS011;40529;52.172;10.548;2023-02-26T05:28:27;2.72;;;1.55;;
53062;SDS011;40529;52.172;10.548;2023-02-26T05:30:54;2.70;;;1.40;;
53062;SDS011;40529;52.172;10.548;2023-02-26T05:33:21;5.13;;;1.48;;
53062;SDS011;40529;52.172;10.548;2023-02-26T05:35:47;4.88;;;1.52;;
53062;SDS011;40529;52.172;10.548;2023-02-26T05:38:13;4.25;;;1.48;;
53062;SDS011;40529;52.172;10.548;2023-02-26T05:40:39;5.47;;;1.30;;
53062;SDS011;40529;52.172;10.548;2023-02-26T05:43:05;3.05;;;1.25;;
53062;SDS011;40529;52.172;10.548;2023-02-26T05:45:32;2.05;;;1.23;;
53062;SDS011;40529;52.172;10.548;2023-02-26T05:47:58;1.42;;;1.15;;
53062;SDS011;40529;52.172;10.548;2023-02-26T05:50:24;4.70;;;1.30;;
53062;SDS011;40529;52.172;10.548;2023-02-26T05:52:51;5.00;;;1.23;;
53062;SDS011;40529;52.172;10.548;2023-02-26T05:55:17;6.18;;;1.23;;
53062;SDS011;40529;52.172;10.548;2023-02-26T05:57:43;2.40;;;1.17;;
53062;SDS011;40529;52.172;10.548;2023-02-26T06:00:09;4.78;;;1.27;;
53062;SDS011;40529;52.172;10.548;2023-02-26T06:02:35;3.63;;;1.75;;
53062;SDS011;40529;52.172;10.548;2023-02-26T06:05:02;5.05;;;1.42;;
53062;SDS011;40529;52.172;10.548;2023-02-26T06:07:28;2.22;;;1.48;;
53062;SDS011;40529;52.172;10.548;2023-02-26T06:09:54;2.25;;;1.38;;
53062;SDS011;40529;52.172;10.548;2023-02-26T06:12:20;1.15;;;1.00;;
53062;SDS011;40529;52.172;10.548;2023-02-26T06:14:46;3.05;;;1.23;;
53062;SDS011;40529;52.172;10.548;2023-02-26T06:17:12;2.70;;;1.35;;
53062;SDS011;40529;52.172;10.548;2023-02-26T06:19:38;5.70;;;1.20;;
53062;SDS011;40529;52.172;10.548;2023-02-26T06:22:04;2.10;;;1.02;;
53062;SDS011;40529;52.172;10.548;2023-02-26T06:24:30;3.63;;;1.50;;
53062;SDS011;40529;52.172;10.548;2023-02-26T06:26:56;2.45;;;1.45;;
53062;SDS011;40529;52.172;10.548;2023-02-26T06:29:22;4.35;;;1.27;;
53062;SDS011;40529;52.172;10.548;2023-02-26T06:31:48;2.08;;;1.20;;
53062;SDS011;40529;52.172;10.548;2023-02-26T06:34:14;2.25;;;1.30;;
53062;SDS011;40529;52.172;10.548;2023-02-26T06:36:41;7.13;;;1.40;;
53062;SDS011;40529;52.172;10.548;2023-02-26T06:39:07;3.00;;;1.20;;
53062;SDS011;40529;52.172;10.548;2023-02-26T06:41:33;2.47;;;1.10;;
53062;SDS011;40529;52.172;10.548;2023-02-26T06:43:59;2.85;;;1.73;;
53062;SDS011;40529;52.172;10.548;2023-02-26T06:46:25;4.72;;;1.35;;
53062;SDS011;40529;52.172;10.548;2023-02-26T06:48:51;4.32;;;1.30;;
53062;SDS011;40529;52.172;10.548;2023-02-26T06:51:20;4.10;;;1.30;;
53062;SDS011;40529;52.172;10.548;2023-02-26T06:53:46;4.43;;;1.20;;
53062;SDS011;40529;52.172;10.548;2023-02-26T06:56:12;2.85;;;1.30;;
53062;SDS011;40529;52.172;10.548;2023-02-26T06:58:38;2.38;;;1.25;;
53062;SDS011;40529;52.172;10.548;2023-02-26T07:01:04;1.63;;;1.13;;
53062;SDS011;40529;52.172;10.548;2023-02-26T07:03:30;3.10;;;1.23;;
53062;SDS011;40529;52.172;10.548;2023-02-26T07:05:56;3.30;;;1.30;;
53062;SDS011;40529;52.172;10.548;2023-02-26T07:08:22;2.15;;;1.27;;
53062;SDS011;40529;52.172;10.548;2023-02-26T07:10:48;2.78;;;1.38;;
53062;SDS011;40529;52.172;10.548;2023-02-26T07:13:15;1.17;;;1.02;;
53062;SDS011;40529;52.172;10.548;2023-02-26T07:15:41;3.50;;;1.45;;
53062;SDS011;40529;52.172;10.548;2023-02-26T07:18:07;3.00;;;1.20;;
53062;SDS011;40529;52.172;10.548;2023-02-26T07:20:33;2.28;;;1.33;;
53062;SDS011;40529;52.172;10.548;2023-02-26T07:22:59;2.92;;;1.20;;
53062;SDS011;40529;52.172;10.548;2023-02-26T07:25:26;6.28;;;1.65;;
53062;SDS011;40529;52.172;10.548;2023-02-26T07:27:52;4.32;;;1.23;;
53062;SDS011;40529;52.172;10.548;2023-02-26T07:30:19;5.38;;;1.17;;
53062;SDS011;40529;52.172;10.548;2023-02-26T07:32:45;1.80;;;1.00;;
53062;SDS011;40529;52.172;10.548;2023-02-26T07:35:11;2.13;;;1.10;;
53062;SDS011;40529;52.172;10.548;2023-02-26T07:37:37;3.08;;;1.23;;
53062;SDS011;40529;52.172;10.548;2023-02-26T07:40:03;3.65;;;1.27;;
53062;SDS011;40529;52.172;10.548;2023-02-26T07:42:29;4.97;;;1.50;;
53062;SDS011;40529;52.172;10.548;2023-02-26T07:44:55;3.35;;;1.20;;
53062;SDS011;40529;52.172;10.548;2023-02-26T07:47:21;2.45;;;1.13;;
53062;SDS011;40529;52.172;10.548;2023-02-26T07:49:47;2.67;;;1.00;;
53062;SDS011;40529;52.172;10.548;2023-02-26T07:52:13;3.10;;;1.65;;
53062;SDS011;40529;52.172;10.548;2023-02-26T07:54:39;4.97;;;1.38;;
53062;SDS011;40529;52.172;10.548;2023-02-26T07:57:05;2.25;;;0.95;;
53062;SDS011;40529;52.172;10.548;2023-02-26T07:59:31;3.15;;;1.55;;
53062;SDS011;40529;52.172;10.548;2023-02-26T08:01:57;2.83;;;1.48;;
53062;SDS011;40529;52.172;10.548;2023-02-26T08:04:23;2.58;;;1.55;;
53062;SDS011;40529;52.172;10.548;2023-02-26T08:06:50;1.52;;;1.10;;
53062;SDS011;40529;52.172;10.548;2023-02-26T08:09:19;3.80;;;2.00;;
53062;SDS011;40529;52.172;10.548;2023-02-26T08:11:46;4.57;;;1.73;;
53062;SDS011;40529;52.172;10.548;2023-02-26T08:14:12;6.45;;;2.42;;
53062;SDS011;40529;52.172;10.548;2023-02-26T08:16:38;3.55;;;1.00;;
53062;SDS011;40529;52.172;10.548;2023-02-26T08:19:04;1.92;;;1.00;;
53062;SDS011;40529;52.172;10.548;2023-02-26T08:21:30;2.45;;;1.98;;
53062;SDS011;40529;52.172;10.548;2023-02-26T08:23:56;2.97;;;2.03;;
53062;SDS011;40529;52.172;10.548;2023-02-26T08:26:22;3.88;;;0.90;;
53062;SDS011;40529;52.172;10.548;2023-02-26T08:28:48;1.25;;;1.10;;
53062;SDS011;40529;52.172;10.548;2023-02-26T08:31:15;3.42;;;2.65;;
53062;SDS011;40529;52.172;10.548;2023-02-26T08:33:41;3.30;;;0.90;;
53062;SDS011;40529;52.172;10.548;2023-02-26T08:36:07;2.00;;;1.30;;
53062;SDS011;40529;52.172;10.548;2023-02-26T08:38:34;5.03;;;1.80;;
53062;SDS011;40529;52.172;10.548;2023-02-26T08:41:00;1.65;;;1.27;;
53062;SDS011;40529;52.172;10.548;2023-02-26T08:43:26;2.42;;;1.63;;
53062;SDS011;40529;52.172;10.548;2023-02-26T08:45:52;4.60;;;2.15;;
53062;SDS011;40529;52.172;10.548;2023-02-26T08:48:19;4.13;;;1.73;;
53062;SDS011;40529;52.172;10.548;2023-02-26T08:50:45;1.00;;;0.70;;
53062;SDS011;40529;52.172;10.548;2023-02-26T08:53:11;2.28;;;0.85;;
53062;SDS011;40529;52.172;10.548;2023-02-26T08:55:37;2.28;;;0.95;;
53062;SDS011;40529;52.172;10.548;2023-02-26T08:58:03;2.40;;;0.90;;
53062;SDS011;40529;52.172;10.548;2023-02-26T09:00:29;2.35;;;1.08;;
53062;SDS011;40529;52.172;10.548;2023-02-26T09:02:55;1.90;;;1.00;;
53062;SDS011;40529;52.172;10.548;2023-02-26T09:05:21;1.85;;;0.90;;
53062;SDS011;40529;52.172;10.548;2023-02-26T09:07:47;4.65;;;1.13;;
53062;SDS011;40529;52.172;10.548;2023-02-26T09:10:13;2.85;;;1.00;;
53062;SDS011;40529;52.172;10.548;2023-02-26T09:12:40;3.40;;;1.00;;
53062;SDS011;40529;52.172;10.548;2023-02-26T09:15:06;1.73;;;0.90;;
53062;SDS011;40529;52.172;10.548;2023-02-26T09:17:33;1.83;;;0.90;;
53062;SDS011;40529;52.172;10.548;2023-02-26T09:19:59;2.17;;;1.00;;
53062;SDS011;40529;52.172;10.548;2023-02-26T09:22:25;2.15;;;0.88;;
53062;SDS011;40529;52.172;10.548;2023-02-26T09:24:51;1.52;;;0.90;;
53062;SDS011;40529;52.172;10.548;2023-02-26T09:27:17;1.77;;;1.00;;
53062;SDS011;40529;52.172;10.548;2023-02-26T09:29:43;4.03;;;1.00;;
53062;SDS011;40529;52.172;10.548;2023-02-26T09:32:09;2.75;;;0.75;;
53062;SDS011;40529;52.172;10.548;2023-02-26T09:34:36;1.13;;;0.95;;
53062;SDS011;40529;52.172;10.548;2023-02-26T09:37:04;3.28;;;1.10;;
53062;SDS011;40529;52.172;10.548;2023-02-26T09:39:30;2.08;;;1.02;;
53062;SDS011;40529;52.172;10.548;2023-02-26T09:42:04;1.10;;;0.70;;
53062;SDS011;40529;52.172;10.548;2023-02-26T09:44:34;2.17;;;1.17;;
53062;SDS011;40529;52.172;10.548;2023-02-26T09:49:39;4.43;;;1.05;;
53062;SDS011;40529;52.172;10.548;2023-02-26T09:52:11;2.28;;;0.90;;
53062;SDS011;40529;52.172;10.548;2023-02-26T09:55:04;5.40;;;1.30;;
53062;SDS011;40529;52.172;10.548;2023-02-26T09:59:55;2.17;;;0.90;;
53062;SDS011;40529;52.172;10.548;2023-02-26T10:07:39;3.20;;;1.23;;
53062;SDS011;40529;52.172;10.548;2023-02-26T10:12:34;3.45;;;1.58;;
53062;SDS011;40529;52.172;10.548;2023-02-26T10:15:22;2.78;;;0.75;;
53062;SDS011;40529;52.172;10.548;2023-02-26T10:20:24;2.10;;;0.80;;
53062;SDS011;40529;52.172;10.548;2023-02-26T10:25:51;3.22;;;0.98;;
53062;SDS011;40529;52.172;10.548;2023-02-26T10:30:45;2.87;;;1.07;;
53062;SDS011;40529;52.172;10.548;2023-02-26T10:33:17;1.73;;;0.88;;
53062;SDS011;40529;52.172;10.548;2023-02-26T10:35:52;2.03;;;0.80;;
53062;SDS011;40529;52.172;10.548;2023-02-26T10:38:19;2.70;;;0.95;;
53062;SDS011;40529;52.172;10.548;2023-02-26T10:40:57;1.17;;;0.90;;
53062;SDS011;40529;52.172;10.548;2023-02-26T10:43:31;1.60;;;0.65;;
53062;SDS011;40529;52.172;10.548;2023-02-26T10:51:22;1.60;;;0.80;;
53062;SDS011;40529;52.172;10.548;2023-02-26T10:58:47;3.17;;;0.90;;
53062;SDS011;40529;52.172;10.548;2023-02-26T11:01:16;1.27;;;0.88;;
53062;SDS011;40529;52.172;10.548;2023-02-26T11:03:43;2.97;;;0.93;;
53062;SDS011;40529;52.172;10.548;2023-02-26T11:06:10;3.67;;;1.90;;
53062;SDS011;40529;52.172;10.548;2023-02-26T11:08:43;5.03;;;2.00;;
53062;SDS011;40529;52.172;10.548;2023-02-26T11:11:10;2.25;;;1.50;;
53062;SDS011;40529;52.172;10.548;2023-02-26T11:13:37;1.98;;;0.88;;
53062;SDS011;40529;52.172;10.548;2023-02-26T11:16:10;3.22;;;0.90;;
53062;SDS011;40529;52.172;10.548;2023-02-26T11:18:47;2.78;;;1.08;;
53062;SDS011;40529;52.172;10.548;2023-02-26T11:21:16;1.98;;;0.93;;
53062;SDS011;40529;52.172;10.548;2023-02-26T11:23:43;1.95;;;0.80;;
53062;SDS011;40529;52.172;10.548;2023-02-26T11:26:18;1.25;;;0.88;;
53062;SDS011;40529;52.172;10.548;2023-02-26T11:28:45;1.77;;;0.80;;
53062;SDS011;40529;52.172;10.548;2023-02-26T11:31:14;2.00;;;0.80;;
53062;SDS011;40529;52.172;10.548;2023-02-26T11:33:44;2.57;;;0.70;;
53062;SDS011;40529;52.172;10.548;2023-02-26T11:36:15;1.77;;;0.82;;
53062;SDS011;40529;52.172;10.548;2023-02-26T11:38:46;3.47;;;0.70;;
53062;SDS011;40529;52.172;10.548;2023-02-26T11:41:16;0.98;;;0.70;;
53062;SDS011;40529;52.172;10.548;2023-02-26T11:43:44;2.95;;;0.77;;
53062;SDS011;40529;52.172;10.548;2023-02-26T11:46:10;1.95;;;0.98;;
53062;SDS011;40529;52.172;10.548;2023-02-26T11:48:46;1.20;;;0.63;;
53062;SDS011;40529;52.172;10.548;2023-02-26T11:51:13;2.65;;;1.13;;
53062;SDS011;40529;52.172;10.548;2023-02-26T11:53:51;2.35;;;0.82;;
53062;SDS011;40529;52.172;10.548;2023-02-26T11:56:30;1.45;;;0.65;;
53062;SDS011;40529;52.172;10.548;2023-02-26T11:59:05;2.58;;;0.90;;
53062;SDS011;40529;52.172;10.548;2023-02-26T12:01:34;2.25;;;0.80;;
53062;SDS011;40529;52.172;10.548;2023-02-26T12:04:00;0.90;;;0.68;;
53062;SDS011;40529;52.172;10.548;2023-02-26T12:06:26;1.77;;;0.88;;
53062;SDS011;40529;52.172;10.548;2023-02-26T12:08:52;1.55;;;1.00;;
53062;SDS011;40529;52.172;10.548;2023-02-26T12:13:58;1.13;;;0.70;;
53062;SDS011;40529;52.172;10.548;2023-02-26T12:19:05;1.33;;;0.60;;
53062;SDS011;40529;52.172;10.548;2023-02-26T12:22:08;3.63;;;0.70;;
53062;SDS011;40529;52.172;10.548;2023-02-26T12:29:41;2.53;;;1.38;;
53062;SDS011;40529;52.172;10.548;2023-02-26T12:32:18;2.08;;;1.00;;
53062;SDS011;40529;52.172;10.548;2023-02-26T12:58:39;0.88;;;0.50;;
53062;SDS011;40529;52.172;10.548;2023-02-26T13:01:20;2.28;;;0.77;;
53062;SDS011;40529;52.172;10.548;2023-02-26T13:09:26;1.67;;;0.70;;
53062;SDS011;40529;52.172;10.548;2023-02-26T13:17:11;1.25;;;0.70;;
53062;SDS011;40529;52.172;10.548;2023-02-26T13:19:46;0.50;;;0.50;;
53062;SDS011;40529;52.172;10.548;2023-02-26T13:22:23;0.98;;;0.70;;
53062;SDS011;40529;52.172;10.548;2023-02-26T13:25:03;0.50;;;0.50;;
53062;SDS011;40529;52.172;10.548;2023-02-26T13:27:33;1.00;;;0.60;;
53062;SDS011;40529;52.172;10.548;2023-02-26T13:32:31;1.40;;;0.80;;
53062;SDS011;40529;52.172;10.548;2023-02-26T13:35:06;1.23;;;0.57;;
53062;SDS011;40529;52.172;10.548;2023-02-26T13:37:44;0.80;;;0.70;;
53062;SDS011;40529;52.172;10.548;2023-02-26T13:50:38;3.78;;;0.90;;
53062;SDS011;40529;52.172;10.548;2023-02-26T13:55:50;3.00;;;0.63;;
53062;SDS011;40529;52.172;10.548;2023-02-26T14:00:46;0.93;;;0.60;;
53062;SDS011;40529;52.172;10.548;2023-02-26T14:10:44;1.42;;;0.70;;
53062;SDS011;40529;52.172;10.548;2023-02-26T14:13:16;1.92;;;0.70;;
53062;SDS011;40529;52.172;10.548;2023-02-26T14:15:59;0.80;;;0.70;;
53062;SDS011;40529;52.172;10.548;2023-02-26T14:18:29;3.15;;;0.65;;
53062;SDS011;40529;52.172;10.548;2023-02-26T14:21:45;1.27;;;0.70;;
53062;SDS011;40529;52.172;10.548;2023-02-26T14:23:45;1.55;;;0.65;;
53062;SDS011;40529;52.172;10.548;2023-02-26T14:26:15;2.33;;;0.70;;
53062;SDS011;40529;52.172;10.548;2023-02-26T14:28:44;1.00;;;0.57;;
53062;SDS011;40529;52.172;10.548;2023-02-26T14:31:20;1.40;;;0.50;;
53062;SDS011;40529;52.172;10.548;2023-02-26T14:36:39;1.30;;;0.50;;
53062;SDS011;40529;52.172;10.548;2023-02-26T14:39:07;1.40;;;0.80;;
53062;SDS011;40529;52.172;10.548;2023-02-26T14:41:38;1.27;;;0.60;;
53062;SDS011;40529;52.172;10.548;2023-02-26T14:44:18;1.48;;;0.60;;
53062;SDS011;40529;52.172;10.548;2023-02-26T14:46:45;1.73;;;0.70;;
53062;SDS011;40529;52.172;10.548;2023-02-26T14:49:46;0.65;;;0.60;;
53062;SDS011;40529;52.172;10.548;2023-02-26T14:52:18;1.00;;;0.55;;
53062;SDS011;40529;52.172;10.548;2023-02-26T15:08:19;5.75;;;0.73;;
53062;SDS011;40529;52.172;10.548;2023-02-26T15:23:58;1.52;;;0.57;;
53062;SDS011;40529;52.172;10.548;2023-02-26T15:26:26;2.15;;;0.70;;
53062;SDS011;40529;52.172;10.548;2023-02-26T15:28:52;0.57;;;0.50;;
53062;SDS011;40529;52.172;10.548;2023-02-26T15:31:20;1.60;;;0.90;;
53062;SDS011;40529;52.172;10.548;2023-02-26T15:33:47;1.40;;;0.82;;
53062;SDS011;40529;52.172;10.548;2023-02-26T15:36:15;1.92;;;0.70;;
53062;SDS011;40529;52.172;10.548;2023-02-26T15:38:44;4.25;;;1.38;;
53062;SDS011;40529;52.172;10.548;2023-02-26T15:41:10;1.35;;;0.75;;
53062;SDS011;40529;52.172;10.548;2023-02-26T15:43:37;1.38;;;0.60;;
53062;SDS011;40529;52.172;10.548;2023-02-26T15:46:03;2.63;;;0.73;;
53062;SDS011;40529;52.172;10.548;2023-02-26T15:48:32;1.52;;;0.60;;
53062;SDS011;40529;52.172;10.548;2023-02-26T15:51:00;1.85;;;0.50;;
53062;SDS011;40529;52.172;10.548;2023-02-26T15:56:05;2.72;;;1.00;;
53062;SDS011;40529;52.172;10.548;2023-02-26T15:58:40;1.60;;;0.70;;
53062;SDS011;40529;52.172;10.548;2023-02-26T16:01:12;0.60;;;0.60;;
53062;SDS011;40529;52.172;10.548;2023-02-26T16:03:39;1.77;;;0.80;;
53062;SDS011;40529;52.172;10.548;2023-02-26T16:06:05;1.77;;;0.70;;
53062;SDS011;40529;52.172;10.548;2023-02-26T16:08:32;3.15;;;0.70;;
53062;SDS011;40529;52.172;10.548;2023-02-26T16:10:58;2.10;;;0.80;;
53062;SDS011;40529;52.172;10.548;2023-02-26T16:13:34;1.30;;;0.82;;
53062;SDS011;40529;52.172;10.548;2023-02-26T16:16:05;0.50;;;0.50;;
53062;SDS011;40529;52.172;10.548;2023-02-26T16:18:34;0.95;;;0.70;;
53062;SDS011;40529;52.172;10.548;2023-02-26T16:21:01;1.52;;;0.70;;
53062;SDS011;40529;52.172;10.548;2023-02-26T16:23:48;1.55;;;0.57;;
53062;SDS011;40529;52.172;10.548;2023-02-26T16:26:23;0.55;;;0.55;;
53062;SDS011;40529;52.172;10.548;2023-02-26T16:28:51;0.77;;;0.63;;
53062;SDS011;40529;52.172;10.548;2023-02-26T16:31:22;1.05;;;0.60;;
53062;SDS011;40529;52.172;10.548;2023-02-26T16:36:19;0.63;;;0.60;;
53062;SDS011;40529;52.172;10.548;2023-02-26T16:38:49;1.67;;;0.85;;
53062;SDS011;40529;52.172;10.548;2023-02-26T16:41:15;2.20;;;1.10;;
53062;SDS011;40529;52.172;10.548;2023-02-26T16:46:19;1.38;;;0.93;;
53062;SDS011;40529;52.172;10.548;2023-02-26T16:51:18;2.23;;;1.30;;
53062;SDS011;40529;52.172;10.548;2023-02-26T16:53:46;1.00;;;0.90;;
53062;SDS011;40529;52.172;10.548;2023-02-26T16:56:17;1.55;;;0.93;;
53062;SDS011;40529;52.172;10.548;2023-02-26T16:58:54;1.50;;;0.75;;
53062;SDS011;40529;52.172;10.548;2023-02-26T17:01:22;1.45;;;1.05;;
53062;SDS011;40529;52.172;10.548;2023-02-26T17:03:49;1.25;;;0.90;;
53062;SDS011;40529;52.172;10.548;2023-02-26T17:06:20;1.10;;;0.90;;
53062;SDS011;40529;52.172;10.548;2023-02-26T17:08:51;1.85;;;0.80;;
53062;SDS011;40529;52.172;10.548;2023-02-26T17:11:22;2.33;;;0.60;;
53062;SDS011;40529;52.172;10.548;2023-02-26T17:14:02;1.33;;;1.05;;
53062;SDS011;40529;52.172;10.548;2023-02-26T17:16:29;0.70;;;0.70;;
53062;SDS011;40529;52.172;10.548;2023-02-26T17:18:55;1.08;;;0.82;;
53062;SDS011;40529;52.172;10.548;2023-02-26T17:21:21;1.52;;;1.20;;
53062;SDS011;40529;52.172;10.548;2023-02-26T17:23:47;2.55;;;1.05;;
53062;SDS011;40529;52.172;10.548;2023-02-26T17:26:13;1.73;;;0.90;;
53062;SDS011;40529;52.172;10.548;2023-02-26T17:28:40;1.77;;;1.13;;
53062;SDS011;40529;52.172;10.548;2023-02-26T17:31:07;1.15;;;0.80;;
53062;SDS011;40529;52.172;10.548;2023-02-26T17:33:34;1.35;;;0.88;;
53062;SDS011;40529;52.172;10.548;2023-02-26T17:36:01;1.58;;;1.00;;
53062;SDS011;40529;52.172;10.548;2023-02-26T17:38:28;1.85;;;0.80;;
53062;SDS011;40529;52.172;10.548;2023-02-26T17:40:54;2.55;;;0.90;;
53062;SDS011;40529;52.172;10.548;2023-02-26T17:43:22;4.00;;;0.90;;
53062;SDS011;40529;52.172;10.548;2023-02-26T17:45:48;2.67;;;1.10;;
53062;SDS011;40529;52.172;10.548;2023-02-26T17:48:14;2.20;;;1.00;;
53062;SDS011;40529;52.172;10.548;2023-02-26T17:50:42;1.17;;;0.90;;
53062;SDS011;40529;52.172;10.548;2023-02-26T17:53:10;5.40;;;1.73;;
53062;SDS011;40529;52.172;10.548;2023-02-26T17:55:37;4.93;;;1.70;;
53062;SDS011;40529;52.172;10.548;2023-02-26T17:58:04;2.95;;;1.33;;
53062;SDS011;40529;52.172;10.548;2023-02-26T18:00:30;1.75;;;1.20;;
53062;SDS011;40529;52.172;10.548;2023-02-26T18:02:58;2.15;;;1.02;;
53062;SDS011;40529;52.172;10.548;2023-02-26T18:05:24;2.30;;;0.90;;
53062;SDS011;40529;52.172;10.548;2023-02-26T18:07:51;1.88;;;0.90;;